createdAt,value
2023-08-15T00:02:27.596Z,18.72
2023-08-15T00:05:32.448Z,18.75
2023-08-15T00:08:35.343Z,18.74
2023-08-15T00:11:38.225Z,18.77
2023-08-15T00:14:41.127Z,18.73
2023-08-15T00:17:44.226Z,18.72
2023-08-15T00:20:49.986Z,18.69
2023-08-15T00:23:52.861Z,18.54
2023-08-15T00:26:55.768Z,18.53
2023-08-15T00:29:58.647Z,18.47
2023-08-15T00:33:01.624Z,18.44
2023-08-15T00:36:07.583Z,18.43
2023-08-15T00:39:10.514Z,18.36
2023-08-15T00:42:13.467Z,18.20
2023-08-15T00:45:16.399Z,18.21
2023-08-15T00:48:19.453Z,18.24
2023-08-15T00:51:23.863Z,18.25
2023-08-15T00:54:26.810Z,18.27
2023-08-15T00:57:29.790Z,18.27
2023-08-15T01:00:32.984Z,18.27
2023-08-15T01:03:37.467Z,18.18
2023-08-15T01:06:41.834Z,18.23
2023-08-15T01:09:44.734Z,18.23
2023-08-15T01:12:53.983Z,18.10
2023-08-15T01:15:56.915Z,18.12
2023-08-15T01:19:03.006Z,18.07
2023-08-15T01:22:15.567Z,17.96
2023-08-15T01:25:20.102Z,17.97
2023-08-15T01:28:23.444Z,17.93
2023-08-15T01:31:31.273Z,18.01
2023-08-15T01:34:36.527Z,18.00
2023-08-15T01:37:41.313Z,18.02
2023-08-15T01:40:47.189Z,18.01
2023-08-15T01:43:50.406Z,17.97
2023-08-15T01:46:53.406Z,18.00
2023-08-15T01:49:56.228Z,18.01
2023-08-15T01:52:59.119Z,17.99
2023-08-15T01:56:03.418Z,17.95
2023-08-15T01:59:06.329Z,17.92
2023-08-15T02:02:09.174Z,17.79
2023-08-15T02:05:12.185Z,17.70
2023-08-15T02:08:15.104Z,17.74
2023-08-15T02:11:19.413Z,17.70
2023-08-15T02:14:22.486Z,17.67
2023-08-15T02:17:25.549Z,17.65
2023-08-15T02:20:28.456Z,17.51
2023-08-15T02:23:31.352Z,17.47
2023-08-15T02:26:36.988Z,17.43
2023-08-15T02:29:39.917Z,17.40
2023-08-15T02:32:42.837Z,17.44
2023-08-15T02:35:45.847Z,17.44
2023-08-15T02:38:48.710Z,17.34
2023-08-15T02:41:52.967Z,17.21
2023-08-15T02:44:56.254Z,17.21
2023-08-15T02:47:59.384Z,17.21
2023-08-15T02:51:04.679Z,17.26
2023-08-15T02:54:08.976Z,17.26
2023-08-15T02:57:13.257Z,17.17
2023-08-15T03:00:16.798Z,17.16
2023-08-15T03:03:19.683Z,17.02
2023-08-15T03:06:22.602Z,17.12
2023-08-15T03:09:25.518Z,17.11
2023-08-15T03:12:30.407Z,17.07
2023-08-15T03:15:33.397Z,17.05
2023-08-15T03:18:36.492Z,17.00
2023-08-15T03:21:39.465Z,16.99
2023-08-15T03:24:43.216Z,16.89
2023-08-15T03:27:47.693Z,16.87
2023-08-15T03:30:50.740Z,16.83
2023-08-15T03:33:53.662Z,16.82
2023-08-15T03:36:56.684Z,16.81
2023-08-15T03:39:59.608Z,16.80
2023-08-15T03:43:04.878Z,16.80
2023-08-15T03:46:09.224Z,16.75
2023-08-15T03:49:12.214Z,16.77
2023-08-15T03:52:15.202Z,16.82
2023-08-15T03:55:18.107Z,16.87
2023-08-15T03:58:24.114Z,16.64
2023-08-15T04:01:26.986Z,16.72
2023-08-15T04:04:29.865Z,16.85
2023-08-15T04:07:32.813Z,16.85
2023-08-15T04:10:40.832Z,16.80
2023-08-15T04:13:45.294Z,16.90
2023-08-15T04:16:49.232Z,16.85
2023-08-15T04:19:54.702Z,16.88
2023-08-15T04:22:57.619Z,16.97
2023-08-15T04:26:00.607Z,17.02
2023-08-15T04:29:05.284Z,17.09
2023-08-15T04:32:08.362Z,17.09
2023-08-15T04:35:11.217Z,17.11
2023-08-15T04:38:15.653Z,17.15
2023-08-15T04:41:18.700Z,17.25
2023-08-15T04:44:23.101Z,17.15
2023-08-15T04:47:25.928Z,17.24
2023-08-15T04:50:29.152Z,17.32
2023-08-15T04:53:32.286Z,17.37
2023-08-15T04:56:40.217Z,17.37
2023-08-15T04:59:44.842Z,17.44
2023-08-15T05:02:51.160Z,17.53
2023-08-15T05:05:54.517Z,17.63
2023-08-15T05:08:57.692Z,17.65
2023-08-15T05:12:00.799Z,17.80
2023-08-15T05:15:09.348Z,17.93
2023-08-15T05:18:16.948Z,17.96
2023-08-15T05:21:20.117Z,18.00
2023-08-15T05:24:26.408Z,18.07
2023-08-15T05:27:30.412Z,18.22
2023-08-15T05:30:34.906Z,18.27
2023-08-15T05:33:37.838Z,18.37
2023-08-15T05:36:43.587Z,18.47
2023-08-15T05:39:46.656Z,18.53
2023-08-15T05:42:49.725Z,18.67
2023-08-15T05:45:54.146Z,18.80
2023-08-15T05:48:57.160Z,18.91
2023-08-15T05:52:01.516Z,19.07
2023-08-15T05:55:04.651Z,19.13
2023-08-15T05:58:09.572Z,19.23
2023-08-15T06:01:14.331Z,19.37
2023-08-15T06:04:17.521Z,19.49
2023-08-15T06:07:20.835Z,19.59
2023-08-15T06:10:24.055Z,19.74
2023-08-15T06:13:32.417Z,19.76
2023-08-15T06:16:36.905Z,19.95
2023-08-15T06:19:42.011Z,20.05
2023-08-15T06:22:45.109Z,20.16
2023-08-15T06:25:49.940Z,20.24
2023-08-15T06:28:52.985Z,20.35
2023-08-15T06:32:00.382Z,20.50
2023-08-15T06:35:07.116Z,20.56
2023-08-15T06:38:12.891Z,20.66
2023-08-15T06:41:18.696Z,20.80
2023-08-15T06:44:22.421Z,20.91
2023-08-15T06:47:26.767Z,20.97
2023-08-15T06:50:29.708Z,20.98
2023-08-15T06:53:32.867Z,21.13
2023-08-15T06:56:36.252Z,21.13
2023-08-15T06:59:42.815Z,21.25
2023-08-15T07:02:50.374Z,21.33
2023-08-15T07:05:56.211Z,21.38
2023-08-15T07:09:03.008Z,21.57
2023-08-15T07:12:06.892Z,21.66
2023-08-15T07:15:10.678Z,21.73
2023-08-15T07:18:16.993Z,21.83
2023-08-15T07:21:23.946Z,21.92
2023-08-15T07:24:27.369Z,22.01
2023-08-15T07:27:38.742Z,22.06
2023-08-15T07:30:45.923Z,22.16
2023-08-15T07:33:50.835Z,22.31
2023-08-15T07:36:54.160Z,22.43
2023-08-15T07:40:02.086Z,22.56
2023-08-15T07:43:05.467Z,22.56
2023-08-15T07:46:08.668Z,22.67
2023-08-15T07:49:14.310Z,22.74
2023-08-15T07:52:17.759Z,22.92
2023-08-15T07:55:20.856Z,23.03
2023-08-15T07:58:24.741Z,23.17
2023-08-15T08:01:30.887Z,23.25
2023-08-15T08:04:44.381Z,23.33
2023-08-15T08:07:51.497Z,23.41
2023-08-15T08:10:54.807Z,23.55
2023-08-15T08:13:57.850Z,23.68
2023-08-15T08:17:03.871Z,23.69
2023-08-15T08:20:13.479Z,23.82
2023-08-15T08:23:18.236Z,23.99
2023-08-15T08:26:21.252Z,24.03
2023-08-15T08:29:24.311Z,24.09
2023-08-15T08:32:29.719Z,24.22
2023-08-15T08:35:37.256Z,24.33
2023-08-15T08:38:40.270Z,24.40
2023-08-15T08:41:43.674Z,24.54
2023-08-15T08:44:48.065Z,24.62
2023-08-15T08:47:51.086Z,24.63
2023-08-15T08:50:57.212Z,24.70
2023-08-15T08:54:00.445Z,24.89
2023-08-15T08:57:05.479Z,24.94
2023-08-15T09:00:12.774Z,24.96
2023-08-15T09:03:16.783Z,25.03
2023-08-15T09:06:21.914Z,25.03
2023-08-15T09:09:24.957Z,25.14
2023-08-15T09:12:35.880Z,25.17
2023-08-15T09:15:39.123Z,25.09
2023-08-15T09:18:42.367Z,25.21
2023-08-15T09:21:46.966Z,25.33
2023-08-15T09:24:50.103Z,25.40
2023-08-15T09:27:55.272Z,25.36
2023-08-15T09:31:05.326Z,25.45
2023-08-15T09:34:11.716Z,25.52
2023-08-15T09:37:16.399Z,25.45
2023-08-15T09:40:23.831Z,25.50
2023-08-15T09:43:26.888Z,25.66
2023-08-15T09:46:34.210Z,25.71
2023-08-15T09:49:37.191Z,25.68
2023-08-15T09:52:44.409Z,25.81
2023-08-15T09:55:49.438Z,25.98
2023-08-15T09:58:55.324Z,26.11
2023-08-15T10:02:00.598Z,26.28
2023-08-15T10:05:07.663Z,26.34
2023-08-15T10:08:17.494Z,26.34
2023-08-15T10:11:21.113Z,26.42
2023-08-15T10:14:24.844Z,26.48
2023-08-15T10:17:30.664Z,26.55
2023-08-15T10:20:37.670Z,26.54
2023-08-15T10:23:44.760Z,26.69
2023-08-15T10:26:50.421Z,26.69
2023-08-15T10:29:59.266Z,26.80
2023-08-15T10:33:05.330Z,26.82
2023-08-15T10:36:09.760Z,26.91
2023-08-15T10:39:19.542Z,26.96
2023-08-15T10:42:22.597Z,27.06
2023-08-15T10:45:26.054Z,27.19
2023-08-15T10:48:47.103Z,27.10
2023-08-15T10:52:00.556Z,27.24
2023-08-15T10:55:05.089Z,27.37
2023-08-15T10:58:09.657Z,27.28
2023-08-15T11:01:13.744Z,27.30
2023-08-15T11:04:21.135Z,27.51
2023-08-15T11:07:28.605Z,27.43
2023-08-15T11:10:33.002Z,27.45
2023-08-15T11:13:38.606Z,27.51
2023-08-15T11:16:41.631Z,27.67
2023-08-15T11:19:45.954Z,27.78
2023-08-15T11:22:57.269Z,27.81
2023-08-15T11:26:06.892Z,27.79
2023-08-15T11:29:11.718Z,27.85
2023-08-15T11:32:14.820Z,27.73
2023-08-15T11:35:18.685Z,27.85
2023-08-15T11:38:22.094Z,27.90
2023-08-15T11:41:26.711Z,27.90
2023-08-15T11:44:29.597Z,27.90
2023-08-15T11:47:33.461Z,27.98
2023-08-15T11:50:44.355Z,27.90
2023-08-15T11:53:51.260Z,28.05
2023-08-15T11:56:56.236Z,28.18
2023-08-15T11:59:59.112Z,28.27
2023-08-15T12:03:02.016Z,28.35
2023-08-15T12:06:08.243Z,28.55
2023-08-15T12:09:11.170Z,28.60
2023-08-15T12:12:21.086Z,28.69
2023-08-15T12:15:24.357Z,28.91
2023-08-15T12:18:27.181Z,28.85
2023-08-15T12:21:30.067Z,29.00
2023-08-15T12:24:32.921Z,29.06
2023-08-15T12:27:37.308Z,29.38
2023-08-15T12:30:40.184Z,29.36
2023-08-15T12:33:47.307Z,29.37
2023-08-15T12:36:51.100Z,29.44
2023-08-15T12:39:54.163Z,29.50
2023-08-15T12:42:58.506Z,29.40
2023-08-15T12:46:04.053Z,29.47
2023-08-15T12:49:06.988Z,29.51
2023-08-15T12:52:10.005Z,29.50
2023-08-15T12:55:15.935Z,29.83
2023-08-15T12:58:20.218Z,30.05
2023-08-15T13:01:24.179Z,30.01
2023-08-15T13:04:29.315Z,30.16
2023-08-15T13:07:32.303Z,30.20
2023-08-15T13:10:35.268Z,29.75
2023-08-15T13:13:40.218Z,29.77
2023-08-15T13:16:43.260Z,29.75
2023-08-15T13:19:46.199Z,30.15
2023-08-15T13:22:49.164Z,30.16
2023-08-15T13:25:52.092Z,30.13
2023-08-15T13:29:00.578Z,30.07
2023-08-15T13:32:03.762Z,30.40
2023-08-15T13:35:11.205Z,30.52
2023-08-15T13:38:16.313Z,30.76
2023-08-15T13:41:22.247Z,30.70
2023-08-15T13:44:29.606Z,30.52
2023-08-15T13:47:32.694Z,30.65
2023-08-15T13:50:35.977Z,31.04
2023-08-15T13:53:39.015Z,31.46
2023-08-15T13:56:42.295Z,31.33
2023-08-15T13:59:48.304Z,31.16
2023-08-15T14:02:52.547Z,31.43
2023-08-15T14:05:56.020Z,31.40
2023-08-15T14:08:59.222Z,31.01
2023-08-15T14:12:02.253Z,31.15
2023-08-15T14:15:09.694Z,31.17
2023-08-15T14:18:13.713Z,31.09
2023-08-15T14:21:17.313Z,31.36
2023-08-15T14:24:21.624Z,32.06
2023-08-15T14:27:25.316Z,32.15
2023-08-15T14:30:29.748Z,32.50
2023-08-15T14:33:34.941Z,32.17
2023-08-15T14:36:40.768Z,32.65
2023-08-15T14:39:47.535Z,33.24
2023-08-15T14:42:51.399Z,34.34
2023-08-15T14:45:58.949Z,35.05
2023-08-15T14:49:05.425Z,34.91
2023-08-15T14:52:12.511Z,35.15
2023-08-15T14:55:20.577Z,34.40
2023-08-15T14:58:23.605Z,35.64
2023-08-15T15:01:28.460Z,36.10
2023-08-15T15:04:31.506Z,34.80
2023-08-15T15:07:34.807Z,35.33
2023-08-15T15:10:37.877Z,35.79
2023-08-15T15:13:45.219Z,35.33
2023-08-15T15:16:54.391Z,35.83
2023-08-15T15:19:57.573Z,36.22
2023-08-15T15:23:00.636Z,35.01
2023-08-15T15:26:05.248Z,35.13
2023-08-15T15:29:11.121Z,34.97
2023-08-15T15:32:17.750Z,35.57
2023-08-15T15:35:23.018Z,36.46
2023-08-15T15:38:26.296Z,35.18
2023-08-15T15:41:29.240Z,36.33
2023-08-15T15:44:35.436Z,36.98
2023-08-15T15:47:40.140Z,36.40
2023-08-15T15:50:43.149Z,34.68
2023-08-15T15:53:46.188Z,34.89
2023-08-15T15:56:49.410Z,34.70
2023-08-15T15:59:52.476Z,35.14
2023-08-15T16:03:00.620Z,36.01
2023-08-15T16:06:03.751Z,36.86
2023-08-15T16:09:07.669Z,35.92
2023-08-15T16:12:10.868Z,35.85
2023-08-15T16:15:13.936Z,35.76
2023-08-15T16:18:18.403Z,36.19
2023-08-15T16:21:27.352Z,37.33
2023-08-15T16:24:30.975Z,37.11
2023-08-15T16:27:33.916Z,37.03
2023-08-15T16:30:36.913Z,37.19
2023-08-15T16:33:41.247Z,36.63
2023-08-15T16:36:44.186Z,37.15
2023-08-15T16:39:50.038Z,36.15
2023-08-15T16:42:57.291Z,35.61
2023-08-15T16:46:00.180Z,35.19
2023-08-15T16:49:07.568Z,35.15
2023-08-15T16:52:10.943Z,34.99
2023-08-15T16:55:14.408Z,34.82
2023-08-15T16:58:17.359Z,34.81
2023-08-15T17:01:23.311Z,35.14
2023-08-15T17:04:28.262Z,34.59
2023-08-15T17:07:34.828Z,35.92
2023-08-15T17:10:38.961Z,35.94
2023-08-15T17:13:47.329Z,34.84
2023-08-15T17:16:50.347Z,33.39
2023-08-15T17:19:56.598Z,32.88
2023-08-15T17:22:59.975Z,31.91
2023-08-15T17:26:02.984Z,32.39
2023-08-15T17:29:07.317Z,32.62
2023-08-15T17:32:11.370Z,32.69
2023-08-15T17:35:18.737Z,32.02
2023-08-15T17:38:24.267Z,30.86
2023-08-15T17:41:28.253Z,30.27
2023-08-15T17:44:31.782Z,29.72
2023-08-15T17:47:36.169Z,29.10
2023-08-15T17:50:41.837Z,28.59
2023-08-15T17:53:46.290Z,28.30
2023-08-15T17:56:49.749Z,28.05
2023-08-15T17:59:53.439Z,27.86
2023-08-15T18:02:57.455Z,27.63
2023-08-15T18:06:03.352Z,27.24
2023-08-15T18:09:06.950Z,27.07
2023-08-15T18:12:11.704Z,27.05
2023-08-15T18:15:17.431Z,26.92
2023-08-15T18:18:21.973Z,26.79
2023-08-15T18:21:26.698Z,26.59
2023-08-15T18:24:29.625Z,26.41
2023-08-15T18:27:33.553Z,26.15
2023-08-15T18:30:37.404Z,26.00
2023-08-15T18:33:41.571Z,25.88
2023-08-15T18:36:47.154Z,25.94
2023-08-15T18:39:51.746Z,25.92
2023-08-15T18:42:54.856Z,25.70
2023-08-15T18:45:58.969Z,25.72
2023-08-15T18:49:02.651Z,25.67
2023-08-15T18:52:09.226Z,25.54
2023-08-15T18:55:13.539Z,25.45
2023-08-15T18:58:18.174Z,25.19
2023-08-15T19:01:21.576Z,25.17
2023-08-15T19:04:25.770Z,25.06
2023-08-15T19:07:33.853Z,25.12
2023-08-15T19:10:38.208Z,25.15
2023-08-15T19:13:42.789Z,24.99
2023-08-15T19:16:46.671Z,24.97
2023-08-15T19:19:53.722Z,24.92
2023-08-15T19:22:59.462Z,24.81
2023-08-15T19:26:03.872Z,24.68
2023-08-15T19:29:07.840Z,24.68
2023-08-15T19:32:11.953Z,24.63
2023-08-15T19:35:15.690Z,24.45
2023-08-15T19:38:21.460Z,24.28
2023-08-15T19:41:25.314Z,24.32
2023-08-15T19:44:31.104Z,24.18
2023-08-15T19:47:35.296Z,24.09
2023-08-15T19:50:39.280Z,24.01
2023-08-15T19:53:43.636Z,23.97
2023-08-15T19:56:47.509Z,23.80
2023-08-15T19:59:51.961Z,23.74
2023-08-15T20:02:56.563Z,23.66
2023-08-15T20:06:00.716Z,23.75
2023-08-15T20:09:06.491Z,23.69
2023-08-15T20:12:10.651Z,23.59
2023-08-15T20:15:13.712Z,23.40
2023-08-15T20:18:17.713Z,23.31
2023-08-15T20:21:22.020Z,23.26
2023-08-15T20:24:27.166Z,23.24
2023-08-15T20:27:30.519Z,23.11
2023-08-15T20:30:34.063Z,23.01
2023-08-15T20:33:37.553Z,22.93
2023-08-15T20:36:40.832Z,22.84
2023-08-15T20:39:45.041Z,22.85
2023-08-15T20:42:48.239Z,22.94
2023-08-15T20:45:52.929Z,22.94
2023-08-15T20:48:55.809Z,22.91
2023-08-15T20:51:58.972Z,22.92
2023-08-15T20:55:04.250Z,22.81
2023-08-15T20:58:07.516Z,22.74
2023-08-15T21:01:10.487Z,22.68
2023-08-15T21:04:13.391Z,22.72
2023-08-15T21:07:16.313Z,22.72
2023-08-15T21:10:20.671Z,22.79
2023-08-15T21:13:23.628Z,22.76
2023-08-15T21:16:27.032Z,22.83
2023-08-15T21:19:29.895Z,22.84
2023-08-15T21:22:34.005Z,22.89
2023-08-15T21:25:38.301Z,22.88
2023-08-15T21:28:41.410Z,22.82
2023-08-15T21:31:44.733Z,22.80
2023-08-15T21:34:47.625Z,22.82
2023-08-15T21:37:50.530Z,22.82
2023-08-15T21:40:54.920Z,22.89
2023-08-15T21:43:57.730Z,22.88
2023-08-15T21:47:00.545Z,22.86
2023-08-15T21:50:04.381Z,22.90
2023-08-15T21:53:07.315Z,22.85
2023-08-15T21:56:11.578Z,22.88
2023-08-15T21:59:14.533Z,22.92
2023-08-15T22:02:17.937Z,22.94
2023-08-15T22:05:20.996Z,22.94
2023-08-15T22:08:23.954Z,22.79
2023-08-15T22:11:28.274Z,22.76
2023-08-15T22:14:31.093Z,22.78
2023-08-15T22:17:45.147Z,22.79
2023-08-15T22:20:49.605Z,22.67
2023-08-15T22:23:52.522Z,22.65
2023-08-15T22:26:57.018Z,22.53
2023-08-15T22:29:59.879Z,22.66
2023-08-15T22:33:02.870Z,22.63
2023-08-15T22:36:06.393Z,22.55
2023-08-15T22:39:09.261Z,22.58
2023-08-15T22:42:13.882Z,22.59
2023-08-15T22:45:16.915Z,22.56
2023-08-15T22:48:19.816Z,22.59
2023-08-15T22:51:22.787Z,22.62
2023-08-15T22:54:25.724Z,22.58
2023-08-15T22:57:30.022Z,22.59
2023-08-15T23:00:32.964Z,22.58
2023-08-15T23:03:36.116Z,22.59
2023-08-15T23:06:39.113Z,22.60
2023-08-15T23:09:42.016Z,22.58
2023-08-15T23:12:49.083Z,22.56
2023-08-15T23:15:52.274Z,22.59
2023-08-15T23:18:55.304Z,22.60
2023-08-15T23:21:58.232Z,22.61
2023-08-15T23:25:03.801Z,22.66
2023-08-15T23:28:08.629Z,22.63
2023-08-15T23:31:12.483Z,22.63
2023-08-15T23:34:15.615Z,22.62
2023-08-15T23:37:18.530Z,22.58
2023-08-15T23:40:21.631Z,22.59
2023-08-15T23:43:25.837Z,22.60
2023-08-15T23:46:28.763Z,22.60
2023-08-15T23:49:31.767Z,22.55
2023-08-15T23:52:34.918Z,22.56
2023-08-15T23:55:37.821Z,22.56
2023-08-15T23:58:42.840Z,22.58
